Sierra Vista, AZ (85650)

8:32 PM MST on September 29, 2016 (GMT -0700)
Sierra Vista Estates | | Change Station

Elev 4682 ft 31.50 °N, 110.27 °W | Updated 1 minute ago

Overcast
Overcast
62.1 °F
Feels Like 62.1 °F
N
0.0
Wind Variable Wind from WNW

Today
High -- | Low -- °F
--% Chance of Precip.
Yesterday
High -- | Low -- °F
Precip. -- in
Pressure 30.08 in
Visibility 10.0 miles
Clouds Mostly Cloudy 10000 ft
Overcast 12000 ft
Dew Point 57 °F
Humidity 86%
Rainfall 0.33 in
Snow Depth Not available.
6:13 AM 6:07 PM
Waning Crescent, 1% visible
METAR KFHU 300258Z AUTO 00000KT 10SM BKN100 OVC120 17/16 A3026 RMK AO2 LTG DSNT E-SE SLP184 T01740159 50009
Pressure 30.08 in
Visibility 10.0 miles
Clouds Mostly Cloudy 10000 ft
Overcast 12000 ft
Dew Point 57 °F
Humidity 86%
Rainfall 0.33 in
Snow Depth Not available.
6:13 AM 6:07 PM
Waning Crescent, 1% visible
METAR KFHU 300258Z AUTO 00000KT 10SM BKN100 OVC120 17/16 A3026 RMK AO2 LTG DSNT E-SE SLP184 T01740159 50009

10-Day Weather Forecast

Almanac

Astronomy

Sep. 29, 2016 Rise Set
Actual Time
Civil Twilight
Nautical Twilight
Astronomical Twilight
Moon
Length of Visible Light
Length of Day
Tomorrow will be .
, % of the Moon is Illuminated

Today's Extremes

State Highs State Lows

Community

WunderPhotos

Upload Photos

1,942,652 photos uploaded!

WunderBlog® & News

Nearby

Air Quality

  Air Quality AQ Index Pollutant
Not available.

Snow Depth

Station Depth Elevation

Earthquake Activity

City Distance Mag. Time & Date
Minimum magnitude displayed is 2.5.

Coastal Water Temperatures

Place Temperature

Stations

Nearby Weather Stations

Station Location Temp. Windchill Dew Point Humidity Wind Precip. Elev Updated Type
                   

Watches & Warnings

There are currently no watches in effect.